sensor_id;sensor_type;location;lat;lon;timestamp;temperature;humidity
78902;DHT22;70441;44.758;37.686;2023-12-20T00:00:39;10.63;82.61
78902;DHT22;70441;44.758;37.686;2023-12-20T00:01:40;10.64;82.53
78902;DHT22;70441;44.758;37.686;2023-12-20T00:02:42;10.66;82.52
78902;DHT22;70441;44.758;37.686;2023-12-20T00:03:47;10.64;82.53
78902;DHT22;70441;44.758;37.686;2023-12-20T00:04:49;10.66;82.69
78902;DHT22;70441;44.758;37.686;2023-12-20T00:05:51;10.66;82.91
78902;DHT22;70441;44.758;37.686;2023-12-20T00:06:52;10.67;83.12
78902;DHT22;70441;44.758;37.686;2023-12-20T00:07:53;10.66;83.42
78902;DHT22;70441;44.758;37.686;2023-12-20T00:08:55;10.66;83.68
78902;DHT22;70441;44.758;37.686;2023-12-20T00:09:56;10.66;84.04
78902;DHT22;70441;44.758;37.686;2023-12-20T00:10:58;10.63;84.26
78902;DHT22;70441;44.758;37.686;2023-12-20T00:11:59;10.63;84.44
78902;DHT22;70441;44.758;37.686;2023-12-20T00:13:01;10.62;84.72
78902;DHT22;70441;44.758;37.686;2023-12-20T00:14:02;10.62;85.11
78902;DHT22;70441;44.758;37.686;2023-12-20T00:15:04;10.62;85.33
78902;DHT22;70441;44.758;37.686;2023-12-20T00:16:06;10.53;85.78
78902;DHT22;70441;44.758;37.686;2023-12-20T00:17:07;10.50;86.16
78902;DHT22;70441;44.758;37.686;2023-12-20T00:18:09;10.48;86.49
78902;DHT22;70441;44.758;37.686;2023-12-20T00:19:10;10.45;86.75
78902;DHT22;70441;44.758;37.686;2023-12-20T00:20:12;10.42;86.95
78902;DHT22;70441;44.758;37.686;2023-12-20T00:21:13;10.36;87.22
78902;DHT22;70441;44.758;37.686;2023-12-20T00:22:15;10.32;87.14
78902;DHT22;70441;44.758;37.686;2023-12-20T00:23:16;10.28;87.27
78902;DHT22;70441;44.758;37.686;2023-12-20T00:24:18;10.25;87.29
78902;DHT22;70441;44.758;37.686;2023-12-20T00:25:19;10.22;87.35
78902;DHT22;70441;44.758;37.686;2023-12-20T00:26:21;10.21;87.45
78902;DHT22;70441;44.758;37.686;2023-12-20T00:27:22;10.15;87.55
78902;DHT22;70441;44.758;37.686;2023-12-20T00:28:24;10.12;87.76
78902;DHT22;70441;44.758;37.686;2023-12-20T00:29:25;10.08;87.83
78902;DHT22;70441;44.758;37.686;2023-12-20T00:30:27;10.05;88.13
78902;DHT22;70441;44.758;37.686;2023-12-20T00:31:29;10.03;88.07
78902;DHT22;70441;44.758;37.686;2023-12-20T00:32:30;10.00;88.04
78902;DHT22;70441;44.758;37.686;2023-12-20T00:33:32;9.97;88.24
78902;DHT22;70441;44.758;37.686;2023-12-20T00:34:33;9.97;88.14
78902;DHT22;70441;44.758;37.686;2023-12-20T00:35:35;9.93;88.16
78902;DHT22;70441;44.758;37.686;2023-12-20T00:36:37;9.90;88.05
78902;DHT22;70441;44.758;37.686;2023-12-20T00:37:39;9.89;87.89
78902;DHT22;70441;44.758;37.686;2023-12-20T00:38:40;9.89;87.93
78902;DHT22;70441;44.758;37.686;2023-12-20T00:39:42;9.89;88.00
78902;DHT22;70441;44.758;37.686;2023-12-20T00:40:43;9.87;88.15
78902;DHT22;70441;44.758;37.686;2023-12-20T00:41:45;9.86;88.29
78902;DHT22;70441;44.758;37.686;2023-12-20T00:42:46;9.87;88.40
78902;DHT22;70441;44.758;37.686;2023-12-20T00:43:48;9.86;88.46
78902;DHT22;70441;44.758;37.686;2023-12-20T00:44:50;9.86;88.56
78902;DHT22;70441;44.758;37.686;2023-12-20T00:45:51;9.86;88.71
78902;DHT22;70441;44.758;37.686;2023-12-20T00:46:53;9.86;88.83
78902;DHT22;70441;44.758;37.686;2023-12-20T00:47:54;9.86;88.92
78902;DHT22;70441;44.758;37.686;2023-12-20T00:48:56;9.85;88.94
78902;DHT22;70441;44.758;37.686;2023-12-20T00:49:57;9.90;88.95
78902;DHT22;70441;44.758;37.686;2023-12-20T00:51:00;9.90;89.09
78902;DHT22;70441;44.758;37.686;2023-12-20T00:52:01;9.91;89.00
78902;DHT22;70441;44.758;37.686;2023-12-20T00:53:02;9.91;88.99
78902;DHT22;70441;44.758;37.686;2023-12-20T00:54:04;9.90;88.79
78902;DHT22;70441;44.758;37.686;2023-12-20T00:55:06;9.91;88.71
78902;DHT22;70441;44.758;37.686;2023-12-20T00:56:07;9.91;88.60
78902;DHT22;70441;44.758;37.686;2023-12-20T00:57:09;9.97;88.39
78902;DHT22;70441;44.758;37.686;2023-12-20T00:58:10;9.97;88.16
78902;DHT22;70441;44.758;37.686;2023-12-20T00:59:12;10.00;88.10
78902;DHT22;70441;44.758;37.686;2023-12-20T01:00:15;10.00;88.07
78902;DHT22;70441;44.758;37.686;2023-12-20T01:01:16;9.98;88.10
78902;DHT22;70441;44.758;37.686;2023-12-20T01:02:18;10.03;87.95
78902;DHT22;70441;44.758;37.686;2023-12-20T01:03:20;10.00;87.92
78902;DHT22;70441;44.758;37.686;2023-12-20T01:04:21;9.97;87.87
78902;DHT22;70441;44.758;37.686;2023-12-20T01:05:23;9.94;87.93
78902;DHT22;70441;44.758;37.686;2023-12-20T01:06:25;9.91;87.79
78902;DHT22;70441;44.758;37.686;2023-12-20T01:07:26;9.91;88.00
78902;DHT22;70441;44.758;37.686;2023-12-20T01:08:27;9.89;87.88
78902;DHT22;70441;44.758;37.686;2023-12-20T01:09:29;9.86;87.93
78902;DHT22;70441;44.758;37.686;2023-12-20T01:10:31;9.86;87.95
78902;DHT22;70441;44.758;37.686;2023-12-20T01:11:34;9.83;87.96
78902;DHT22;70441;44.758;37.686;2023-12-20T01:12:36;9.85;87.95
78902;DHT22;70441;44.758;37.686;2023-12-20T01:13:38;9.80;88.11
78902;DHT22;70441;44.758;37.686;2023-12-20T01:14:39;9.83;88.27
78902;DHT22;70441;44.758;37.686;2023-12-20T01:15:41;9.82;88.37
78902;DHT22;70441;44.758;37.686;2023-12-20T01:16:42;9.83;88.41
78902;DHT22;70441;44.758;37.686;2023-12-20T01:17:44;9.83;88.41
78902;DHT22;70441;44.758;37.686;2023-12-20T01:18:45;9.83;88.37
78902;DHT22;70441;44.758;37.686;2023-12-20T01:19:47;9.80;88.26
78902;DHT22;70441;44.758;37.686;2023-12-20T01:20:49;9.82;88.26
78902;DHT22;70441;44.758;37.686;2023-12-20T01:21:50;9.83;88.32
78902;DHT22;70441;44.758;37.686;2023-12-20T01:22:51;9.85;88.33
78902;DHT22;70441;44.758;37.686;2023-12-20T01:23:53;9.85;88.32
78902;DHT22;70441;44.758;37.686;2023-12-20T01:24:55;9.86;88.31
78902;DHT22;70441;44.758;37.686;2023-12-20T01:25:56;9.87;88.31
78902;DHT22;70441;44.758;37.686;2023-12-20T01:26:58;9.89;88.39
78902;DHT22;70441;44.758;37.686;2023-12-20T01:27:59;9.90;88.39
78902;DHT22;70441;44.758;37.686;2023-12-20T01:29:01;9.91;88.42
78902;DHT22;70441;44.758;37.686;2023-12-20T01:30:02;9.90;88.31
78902;DHT22;70441;44.758;37.686;2023-12-20T01:31:04;9.91;88.20
78902;DHT22;70441;44.758;37.686;2023-12-20T01:32:06;9.94;88.04
78902;DHT22;70441;44.758;37.686;2023-12-20T01:33:08;9.94;87.72
78902;DHT22;70441;44.758;37.686;2023-12-20T01:34:09;9.96;87.40
78902;DHT22;70441;44.758;37.686;2023-12-20T01:35:11;9.98;87.34
78902;DHT22;70441;44.758;37.686;2023-12-20T01:36:14;9.97;87.24
78902;DHT22;70441;44.758;37.686;2023-12-20T01:37:15;10.00;87.11
78902;DHT22;70441;44.758;37.686;2023-12-20T01:38:18;10.01;87.10
78902;DHT22;70441;44.758;37.686;2023-12-20T01:39:20;10.00;87.13
78902;DHT22;70441;44.758;37.686;2023-12-20T01:40:22;10.04;87.06
78902;DHT22;70441;44.758;37.686;2023-12-20T01:41:28;10.05;87.01
78902;DHT22;70441;44.758;37.686;2023-12-20T01:42:30;10.04;86.75
78902;DHT22;70441;44.758;37.686;2023-12-20T01:43:35;10.00;86.64
78902;DHT22;70441;44.758;37.686;2023-12-20T01:44:38;10.00;86.27
78902;DHT22;70441;44.758;37.686;2023-12-20T01:45:40;9.98;86.28
78902;DHT22;70441;44.758;37.686;2023-12-20T01:46:42;9.98;86.33
78902;DHT22;70441;44.758;37.686;2023-12-20T01:47:45;10.00;86.49
78902;DHT22;70441;44.758;37.686;2023-12-20T01:48:48;10.03;86.60
78902;DHT22;70441;44.758;37.686;2023-12-20T01:49:50;9.98;86.71
78902;DHT22;70441;44.758;37.686;2023-12-20T01:50:53;10.01;86.84
78902;DHT22;70441;44.758;37.686;2023-12-20T01:51:56;10.01;86.85
78902;DHT22;70441;44.758;37.686;2023-12-20T01:53:00;10.04;86.59
78902;DHT22;70441;44.758;37.686;2023-12-20T01:54:03;10.08;86.37
78902;DHT22;70441;44.758;37.686;2023-12-20T01:55:07;10.10;86.31
78902;DHT22;70441;44.758;37.686;2023-12-20T01:56:15;10.11;86.24
78902;DHT22;70441;44.758;37.686;2023-12-20T01:57:19;10.11;86.29
78902;DHT22;70441;44.758;37.686;2023-12-20T01:58:22;10.14;85.98
78902;DHT22;70441;44.758;37.686;2023-12-20T01:59:25;10.15;85.92
78902;DHT22;70441;44.758;37.686;2023-12-20T02:00:29;10.15;85.91
78902;DHT22;70441;44.758;37.686;2023-12-20T02:01:32;10.17;86.00
78902;DHT22;70441;44.758;37.686;2023-12-20T02:02:37;10.21;86.00
78902;DHT22;70441;44.758;37.686;2023-12-20T02:03:42;10.21;85.98
78902;DHT22;70441;44.758;37.686;2023-12-20T02:04:46;10.22;85.95
78902;DHT22;70441;44.758;37.686;2023-12-20T02:05:49;10.22;85.90
78902;DHT22;70441;44.758;37.686;2023-12-20T02:06:52;10.27;86.00
78902;DHT22;70441;44.758;37.686;2023-12-20T02:07:54;10.27;86.02
78902;DHT22;70441;44.758;37.686;2023-12-20T02:08:57;10.28;86.07
78902;DHT22;70441;44.758;37.686;2023-12-20T02:10:00;10.29;86.13
78902;DHT22;70441;44.758;37.686;2023-12-20T02:11:02;10.35;86.35
78902;DHT22;70441;44.758;37.686;2023-12-20T02:12:05;10.34;86.30
78902;DHT22;70441;44.758;37.686;2023-12-20T02:13:10;10.36;86.26
78902;DHT22;70441;44.758;37.686;2023-12-20T02:14:12;10.34;86.16
78902;DHT22;70441;44.758;37.686;2023-12-20T02:15:15;10.38;85.99
78902;DHT22;70441;44.758;37.686;2023-12-20T02:16:19;10.39;85.64
78902;DHT22;70441;44.758;37.686;2023-12-20T02:17:22;10.39;85.51
78902;DHT22;70441;44.758;37.686;2023-12-20T02:18:24;10.41;85.44
78902;DHT22;70441;44.758;37.686;2023-12-20T02:19:27;10.42;85.14
78902;DHT22;70441;44.758;37.686;2023-12-20T02:20:29;10.44;85.16
78902;DHT22;70441;44.758;37.686;2023-12-20T02:21:34;10.42;85.24
78902;DHT22;70441;44.758;37.686;2023-12-20T02:22:37;10.45;85.27
78902;DHT22;70441;44.758;37.686;2023-12-20T02:23:39;10.46;85.34
78902;DHT22;70441;44.758;37.686;2023-12-20T02:24:43;10.44;85.43
78902;DHT22;70441;44.758;37.686;2023-12-20T02:25:45;10.46;85.33
78902;DHT22;70441;44.758;37.686;2023-12-20T02:26:48;10.46;85.31
78902;DHT22;70441;44.758;37.686;2023-12-20T02:27:51;10.42;85.20
78902;DHT22;70441;44.758;37.686;2023-12-20T02:28:54;10.45;85.33
78902;DHT22;70441;44.758;37.686;2023-12-20T02:29:57;10.44;85.47
78902;DHT22;70441;44.758;37.686;2023-12-20T02:30:59;10.46;85.52
78902;DHT22;70441;44.758;37.686;2023-12-20T02:32:02;10.45;85.64
78902;DHT22;70441;44.758;37.686;2023-12-20T02:33:07;10.45;85.89
78902;DHT22;70441;44.758;37.686;2023-12-20T02:34:13;10.44;85.88
78902;DHT22;70441;44.758;37.686;2023-12-20T02:35:15;10.41;85.88
78902;DHT22;70441;44.758;37.686;2023-12-20T02:36:19;10.39;85.83
78902;DHT22;70441;44.758;37.686;2023-12-20T02:37:24;10.41;85.86
78902;DHT22;70441;44.758;37.686;2023-12-20T02:38:27;10.39;85.94
78902;DHT22;70441;44.758;37.686;2023-12-20T02:39:30;10.36;85.90
78902;DHT22;70441;44.758;37.686;2023-12-20T02:40:32;10.39;86.02
78902;DHT22;70441;44.758;37.686;2023-12-20T02:41:34;10.38;85.87
78902;DHT22;70441;44.758;37.686;2023-12-20T02:42:37;10.38;85.94
78902;DHT22;70441;44.758;37.686;2023-12-20T02:43:39;10.38;86.03
78902;DHT22;70441;44.758;37.686;2023-12-20T02:44:41;10.39;86.09
78902;DHT22;70441;44.758;37.686;2023-12-20T02:45:43;10.39;85.91
78902;DHT22;70441;44.758;37.686;2023-12-20T02:46:45;10.36;85.91
78902;DHT22;70441;44.758;37.686;2023-12-20T02:47:47;10.36;85.57
78902;DHT22;70441;44.758;37.686;2023-12-20T02:48:49;10.36;85.26
78902;DHT22;70441;44.758;37.686;2023-12-20T02:49:51;10.35;85.10
78902;DHT22;70441;44.758;37.686;2023-12-20T02:50:54;10.38;85.10
78902;DHT22;70441;44.758;37.686;2023-12-20T02:51:56;10.36;85.18
78902;DHT22;70441;44.758;37.686;2023-12-20T02:52:58;10.36;85.23
78902;DHT22;70441;44.758;37.686;2023-12-20T02:54:00;10.36;85.20
78902;DHT22;70441;44.758;37.686;2023-12-20T02:55:02;10.38;85.27
78902;DHT22;70441;44.758;37.686;2023-12-20T02:56:04;10.36;84.94
78902;DHT22;70441;44.758;37.686;2023-12-20T02:57:11;10.38;84.93
78902;DHT22;70441;44.758;37.686;2023-12-20T02:58:13;10.39;85.06
78902;DHT22;70441;44.758;37.686;2023-12-20T02:59:15;10.38;85.15
78902;DHT22;70441;44.758;37.686;2023-12-20T03:00:17;10.39;85.21
78902;DHT22;70441;44.758;37.686;2023-12-20T03:01:19;10.41;85.09
78902;DHT22;70441;44.758;37.686;2023-12-20T03:02:21;10.39;85.24
78902;DHT22;70441;44.758;37.686;2023-12-20T03:03:25;10.41;85.18
78902;DHT22;70441;44.758;37.686;2023-12-20T03:04:28;10.39;85.17
78902;DHT22;70441;44.758;37.686;2023-12-20T03:05:30;10.42;85.09
78902;DHT22;70441;44.758;37.686;2023-12-20T03:06:32;10.45;84.80
78902;DHT22;70441;44.758;37.686;2023-12-20T03:07:36;10.45;84.68
78902;DHT22;70441;44.758;37.686;2023-12-20T03:08:39;10.44;84.53
78902;DHT22;70441;44.758;37.686;2023-12-20T03:09:43;10.46;84.46
78902;DHT22;70441;44.758;37.686;2023-12-20T03:10:45;10.46;84.52
78902;DHT22;70441;44.758;37.686;2023-12-20T03:11:48;10.46;84.19
78902;DHT22;70441;44.758;37.686;2023-12-20T03:12:50;10.48;84.14
78902;DHT22;70441;44.758;37.686;2023-12-20T03:13:53;10.48;84.28
78902;DHT22;70441;44.758;37.686;2023-12-20T03:14:58;10.48;84.51
78902;DHT22;70441;44.758;37.686;2023-12-20T03:16:10;10.46;84.58
78902;DHT22;70441;44.758;37.686;2023-12-20T03:17:12;10.48;84.49
78902;DHT22;70441;44.758;37.686;2023-12-20T03:18:16;10.50;84.39
78902;DHT22;70441;44.758;37.686;2023-12-20T03:19:21;10.49;84.23
78902;DHT22;70441;44.758;37.686;2023-12-20T03:20:23;10.52;84.12
78902;DHT22;70441;44.758;37.686;2023-12-20T03:21:25;10.49;84.10
78902;DHT22;70441;44.758;37.686;2023-12-20T03:22:27;10.48;84.15
78902;DHT22;70441;44.758;37.686;2023-12-20T03:23:30;10.48;84.10
78902;DHT22;70441;44.758;37.686;2023-12-20T03:24:33;10.50;84.20
78902;DHT22;70441;44.758;37.686;2023-12-20T03:25:35;10.50;83.97
78902;DHT22;70441;44.758;37.686;2023-12-20T03:26:40;10.50;83.55
78902;DHT22;70441;44.758;37.686;2023-12-20T03:27:43;10.49;83.78
78902;DHT22;70441;44.758;37.686;2023-12-20T03:28:56;10.48;83.58
78902;DHT22;70441;44.758;37.686;2023-12-20T03:30:01;10.50;83.16
78902;DHT22;70441;44.758;37.686;2023-12-20T03:31:03;10.53;83.18
78902;DHT22;70441;44.758;37.686;2023-12-20T03:32:06;10.52;83.37
78902;DHT22;70441;44.758;37.686;2023-12-20T03:33:11;10.52;83.18
78902;DHT22;70441;44.758;37.686;2023-12-20T03:34:14;10.53;83.05
78902;DHT22;70441;44.758;37.686;2023-12-20T03:35:16;10.52;83.23
78902;DHT22;70441;44.758;37.686;2023-12-20T03:36:21;10.56;83.26
78902;DHT22;70441;44.758;37.686;2023-12-20T03:37:24;10.53;83.14
78902;DHT22;70441;44.758;37.686;2023-12-20T03:38:27;10.52;83.22
78902;DHT22;70441;44.758;37.686;2023-12-20T03:39:29;10.55;83.43
78902;DHT22;70441;44.758;37.686;2023-12-20T03:40:31;10.53;83.26
78902;DHT22;70441;44.758;37.686;2023-12-20T03:41:35;10.56;83.39
78902;DHT22;70441;44.758;37.686;2023-12-20T03:42:40;10.56;83.24
78902;DHT22;70441;44.758;37.686;2023-12-20T03:43:44;10.56;82.95
78902;DHT22;70441;44.758;37.686;2023-12-20T03:44:47;10.56;82.78
78902;DHT22;70441;44.758;37.686;2023-12-20T03:45:52;10.56;82.56
78902;DHT22;70441;44.758;37.686;2023-12-20T03:46:59;10.56;82.68
78902;DHT22;70441;44.758;37.686;2023-12-20T03:48:04;10.60;82.51
78902;DHT22;70441;44.758;37.686;2023-12-20T03:49:07;10.57;82.52
78902;DHT22;70441;44.758;37.686;2023-12-20T03:50:09;10.59;82.44
78902;DHT22;70441;44.758;37.686;2023-12-20T03:51:11;10.59;82.22
78902;DHT22;70441;44.758;37.686;2023-12-20T03:52:16;10.62;82.31
78902;DHT22;70441;44.758;37.686;2023-12-20T03:53:22;10.59;82.58
78902;DHT22;70441;44.758;37.686;2023-12-20T03:54:26;10.59;82.67
78902;DHT22;70441;44.758;37.686;2023-12-20T03:55:34;10.57;82.77
78902;DHT22;70441;44.758;37.686;2023-12-20T03:56:39;10.59;82.78
78902;DHT22;70441;44.758;37.686;2023-12-20T03:57:41;10.60;83.04
78902;DHT22;70441;44.758;37.686;2023-12-20T03:58:44;10.57;83.09
78902;DHT22;70441;44.758;37.686;2023-12-20T03:59:47;10.62;83.09
78902;DHT22;70441;44.758;37.686;2023-12-20T04:00:56;10.57;82.98
78902;DHT22;70441;44.758;37.686;2023-12-20T04:01:59;10.63;82.95
78902;DHT22;70441;44.758;37.686;2023-12-20T04:03:04;10.62;83.10
78902;DHT22;70441;44.758;37.686;2023-12-20T04:04:12;10.63;83.04
78902;DHT22;70441;44.758;37.686;2023-12-20T04:05:14;10.60;82.78
78902;DHT22;70441;44.758;37.686;2023-12-20T04:06:18;10.62;82.62
78902;DHT22;70441;44.758;37.686;2023-12-20T04:07:22;10.59;82.58
78902;DHT22;70441;44.758;37.686;2023-12-20T04:09:46;10.59;81.98
78902;DHT22;70441;44.758;37.686;2023-12-20T04:10:50;10.62;81.78
78902;DHT22;70441;44.758;37.686;2023-12-20T04:11:55;10.62;81.67
78902;DHT22;70441;44.758;37.686;2023-12-20T04:13:01;10.62;81.66
78902;DHT22;70441;44.758;37.686;2023-12-20T04:14:04;10.62;81.54
78902;DHT22;70441;44.758;37.686;2023-12-20T04:15:06;10.59;81.37
78902;DHT22;70441;44.758;37.686;2023-12-20T04:16:13;10.59;81.03
78902;DHT22;70441;44.758;37.686;2023-12-20T04:17:16;10.60;80.54
78902;DHT22;70441;44.758;37.686;2023-12-20T04:18:18;10.60;80.69
78902;DHT22;70441;44.758;37.686;2023-12-20T04:19:23;10.63;80.94
78902;DHT22;70441;44.758;37.686;2023-12-20T04:20:25;10.63;81.09
78902;DHT22;70441;44.758;37.686;2023-12-20T04:21:31;10.63;81.34
78902;DHT22;70441;44.758;37.686;2023-12-20T04:22:34;10.63;81.31
78902;DHT22;70441;44.758;37.686;2023-12-20T04:23:38;10.62;81.33
78902;DHT22;70441;44.758;37.686;2023-12-20T04:24:41;10.64;81.54
78902;DHT22;70441;44.758;37.686;2023-12-20T04:25:48;10.63;81.50
78902;DHT22;70441;44.758;37.686;2023-12-20T04:26:51;10.66;81.42
78902;DHT22;70441;44.758;37.686;2023-12-20T04:27:57;10.66;81.55
78902;DHT22;70441;44.758;37.686;2023-12-20T04:29:05;10.62;81.39
78902;DHT22;70441;44.758;37.686;2023-12-20T04:30:08;10.64;81.14
78902;DHT22;70441;44.758;37.686;2023-12-20T04:31:10;10.64;81.01
78902;DHT22;70441;44.758;37.686;2023-12-20T04:32:13;10.64;81.10
78902;DHT22;70441;44.758;37.686;2023-12-20T04:33:15;10.64;80.90
78902;DHT22;70441;44.758;37.686;2023-12-20T04:34:17;10.64;80.99
78902;DHT22;70441;44.758;37.686;2023-12-20T04:35:19;10.67;81.11
78902;DHT22;70441;44.758;37.686;2023-12-20T04:36:21;10.63;80.98
78902;DHT22;70441;44.758;37.686;2023-12-20T04:37:24;10.63;80.74
78902;DHT22;70441;44.758;37.686;2023-12-20T04:38:26;10.64;80.88
78902;DHT22;70441;44.758;37.686;2023-12-20T04:39:28;10.63;81.04
78902;DHT22;70441;44.758;37.686;2023-12-20T04:40:30;10.64;81.18
78902;DHT22;70441;44.758;37.686;2023-12-20T04:41:33;10.66;81.29
78902;DHT22;70441;44.758;37.686;2023-12-20T04:42:35;10.63;81.13
78902;DHT22;70441;44.758;37.686;2023-12-20T04:43:41;10.63;81.01
78902;DHT22;70441;44.758;37.686;2023-12-20T04:44:43;10.63;80.94
78902;DHT22;70441;44.758;37.686;2023-12-20T04:45:46;10.62;80.82
78902;DHT22;70441;44.758;37.686;2023-12-20T04:46:51;10.60;80.70
78902;DHT22;70441;44.758;37.686;2023-12-20T04:47:53;10.62;80.55
78902;DHT22;70441;44.758;37.686;2023-12-20T04:48:58;10.59;80.21
78902;DHT22;70441;44.758;37.686;2023-12-20T04:50:00;10.60;80.25
78902;DHT22;70441;44.758;37.686;2023-12-20T04:51:11;10.60;80.46
78902;DHT22;70441;44.758;37.686;2023-12-20T04:52:15;10.60;80.52
78902;DHT22;70441;44.758;37.686;2023-12-20T04:53:20;10.57;80.48
78902;DHT22;70441;44.758;37.686;2023-12-20T04:54:22;10.59;80.66
78902;DHT22;70441;44.758;37.686;2023-12-20T04:55:24;10.60;80.47
78902;DHT22;70441;44.758;37.686;2023-12-20T04:56:26;10.60;79.97
78902;DHT22;70441;44.758;37.686;2023-12-20T04:57:28;10.60;79.74
78902;DHT22;70441;44.758;37.686;2023-12-20T04:58:30;10.63;79.96
78902;DHT22;70441;44.758;37.686;2023-12-20T04:59:33;10.62;80.20
78902;DHT22;70441;44.758;37.686;2023-12-20T05:00:36;10.62;80.41
78902;DHT22;70441;44.758;37.686;2023-12-20T05:01:37;10.63;80.66
78902;DHT22;70441;44.758;37.686;2023-12-20T05:02:39;10.62;80.36
78902;DHT22;70441;44.758;37.686;2023-12-20T05:03:41;10.62;80.26
78902;DHT22;70441;44.758;37.686;2023-12-20T05:04:47;10.63;80.38
78902;DHT22;70441;44.758;37.686;2023-12-20T05:05:49;10.60;80.48
78902;DHT22;70441;44.758;37.686;2023-12-20T05:06:53;10.62;80.46
78902;DHT22;70441;44.758;37.686;2023-12-20T05:07:55;10.60;80.44
78902;DHT22;70441;44.758;37.686;2023-12-20T05:08:58;10.59;80.44
78902;DHT22;70441;44.758;37.686;2023-12-20T05:10:00;10.60;80.52
78902;DHT22;70441;44.758;37.686;2023-12-20T05:11:03;10.63;80.51
78902;DHT22;70441;44.758;37.686;2023-12-20T05:12:06;10.63;80.50
78902;DHT22;70441;44.758;37.686;2023-12-20T05:13:08;10.62;80.62
78902;DHT22;70441;44.758;37.686;2023-12-20T05:14:12;10.62;80.69
78902;DHT22;70441;44.758;37.686;2023-12-20T05:15:14;10.60;80.93
78902;DHT22;70441;44.758;37.686;2023-12-20T05:16:18;10.59;81.04
78902;DHT22;70441;44.758;37.686;2023-12-20T05:17:21;10.60;81.05
78902;DHT22;70441;44.758;37.686;2023-12-20T05:18:23;10.60;81.20
78902;DHT22;70441;44.758;37.686;2023-12-20T05:19:25;10.59;81.07
78902;DHT22;70441;44.758;37.686;2023-12-20T05:20:28;10.57;81.00
78902;DHT22;70441;44.758;37.686;2023-12-20T05:21:30;10.56;81.01
78902;DHT22;70441;44.758;37.686;2023-12-20T05:22:32;10.56;81.07
78902;DHT22;70441;44.758;37.686;2023-12-20T05:23:34;10.55;81.07
78902;DHT22;70441;44.758;37.686;2023-12-20T05:24:36;10.56;80.86
78902;DHT22;70441;44.758;37.686;2023-12-20T05:25:38;10.57;81.13
78902;DHT22;70441;44.758;37.686;2023-12-20T05:26:40;10.56;81.29
78902;DHT22;70441;44.758;37.686;2023-12-20T05:27:42;10.59;81.25
78902;DHT22;70441;44.758;37.686;2023-12-20T05:28:44;10.57;81.33
78902;DHT22;70441;44.758;37.686;2023-12-20T05:29:46;10.59;81.36
78902;DHT22;70441;44.758;37.686;2023-12-20T05:30:49;10.63;81.43
78902;DHT22;70441;44.758;37.686;2023-12-20T05:31:52;10.63;81.47
78902;DHT22;70441;44.758;37.686;2023-12-20T05:32:54;10.62;81.48
78902;DHT22;70441;44.758;37.686;2023-12-20T05:33:57;10.62;81.48
78902;DHT22;70441;44.758;37.686;2023-12-20T05:34:59;10.62;81.47
78902;DHT22;70441;44.758;37.686;2023-12-20T05:36:01;10.63;81.45
78902;DHT22;70441;44.758;37.686;2023-12-20T05:37:05;10.63;81.16
78902;DHT22;70441;44.758;37.686;2023-12-20T05:38:08;10.63;81.23
78902;DHT22;70441;44.758;37.686;2023-12-20T05:39:09;10.64;81.04
78902;DHT22;70441;44.758;37.686;2023-12-20T05:40:11;10.66;80.98
78902;DHT22;70441;44.758;37.686;2023-12-20T05:41:13;10.66;80.70
78902;DHT22;70441;44.758;37.686;2023-12-20T05:42:15;10.66;80.67
78902;DHT22;70441;44.758;37.686;2023-12-20T05:43:17;10.67;80.63
78902;DHT22;70441;44.758;37.686;2023-12-20T05:44:19;10.67;80.73
78902;DHT22;70441;44.758;37.686;2023-12-20T05:45:20;10.69;80.77
78902;DHT22;70441;44.758;37.686;2023-12-20T05:46:28;10.69;80.68
78902;DHT22;70441;44.758;37.686;2023-12-20T05:47:31;10.69;80.76
78902;DHT22;70441;44.758;37.686;2023-12-20T05:48:33;10.71;80.58
78902;DHT22;70441;44.758;37.686;2023-12-20T05:49:35;10.71;80.49
78902;DHT22;70441;44.758;37.686;2023-12-20T05:50:37;10.74;80.61
78902;DHT22;70441;44.758;37.686;2023-12-20T05:51:41;10.73;80.29
78902;DHT22;70441;44.758;37.686;2023-12-20T05:52:43;10.73;80.03
78902;DHT22;70441;44.758;37.686;2023-12-20T05:53:47;10.76;79.85
78902;DHT22;70441;44.758;37.686;2023-12-20T05:54:53;10.76;79.66
78902;DHT22;70441;44.758;37.686;2023-12-20T05:55:54;10.79;79.72
78902;DHT22;70441;44.758;37.686;2023-12-20T05:56:56;10.83;79.67
78902;DHT22;70441;44.758;37.686;2023-12-20T05:57:58;10.84;79.85
78902;DHT22;70441;44.758;37.686;2023-12-20T05:59:00;10.87;79.96
78902;DHT22;70441;44.758;37.686;2023-12-20T06:00:04;10.87;79.75
78902;DHT22;70441;44.758;37.686;2023-12-20T06:01:14;10.88;79.85
78902;DHT22;70441;44.758;37.686;2023-12-20T06:02:18;10.91;79.88
78902;DHT22;70441;44.758;37.686;2023-12-20T06:03:20;10.94;79.59
78902;DHT22;70441;44.758;37.686;2023-12-20T06:04:24;10.94;79.48
78902;DHT22;70441;44.758;37.686;2023-12-20T06:05:28;10.97;79.71
78902;DHT22;70441;44.758;37.686;2023-12-20T06:06:30;11.01;79.91
78902;DHT22;70441;44.758;37.686;2023-12-20T06:07:32;11.01;79.85
78902;DHT22;70441;44.758;37.686;2023-12-20T06:08:34;11.07;79.26
78902;DHT22;70441;44.758;37.686;2023-12-20T06:09:38;11.05;78.88
78902;DHT22;70441;44.758;37.686;2023-12-20T06:10:40;11.03;78.48
78902;DHT22;70441;44.758;37.686;2023-12-20T06:11:42;11.04;78.63
78902;DHT22;70441;44.758;37.686;2023-12-20T06:12:43;11.08;78.38
78902;DHT22;70441;44.758;37.686;2023-12-20T06:13:49;11.11;77.92
78902;DHT22;70441;44.758;37.686;2023-12-20T06:14:53;11.14;78.08
78902;DHT22;70441;44.758;37.686;2023-12-20T06:15:55;11.12;77.63
78902;DHT22;70441;44.758;37.686;2023-12-20T06:16:57;11.11;77.33
78902;DHT22;70441;44.758;37.686;2023-12-20T06:17:59;11.11;77.36
78902;DHT22;70441;44.758;37.686;2023-12-20T06:19:01;11.11;77.40
78902;DHT22;70441;44.758;37.686;2023-12-20T06:20:04;11.10;76.92
78902;DHT22;70441;44.758;37.686;2023-12-20T06:21:08;11.12;76.90
78902;DHT22;70441;44.758;37.686;2023-12-20T06:22:15;11.11;76.95
78902;DHT22;70441;44.758;37.686;2023-12-20T06:23:17;11.11;76.85
78902;DHT22;70441;44.758;37.686;2023-12-20T06:24:18;11.12;77.19
78902;DHT22;70441;44.758;37.686;2023-12-20T06:25:20;11.12;77.00
78902;DHT22;70441;44.758;37.686;2023-12-20T06:26:22;11.11;77.03
78902;DHT22;70441;44.758;37.686;2023-12-20T06:27:23;11.14;76.98
78902;DHT22;70441;44.758;37.686;2023-12-20T06:28:25;11.15;77.28
78902;DHT22;70441;44.758;37.686;2023-12-20T06:29:29;11.15;77.45
78902;DHT22;70441;44.758;37.686;2023-12-20T06:30:30;11.16;77.32
78902;DHT22;70441;44.758;37.686;2023-12-20T06:31:34;11.18;77.29
78902;DHT22;70441;44.758;37.686;2023-12-20T06:32:35;11.18;77.10